YMML/MEL METAR and TAF weather

Enter ICAO airport designator
Station Type Date Time Source
YMML METAR 2019/06/16 12:30 UTC NOAA

YMML 161230Z 36010KT 9999 FEW040 09/06 Q1023 NOSIG


Station Type Date Time Source
YMML Decoded METAR 2019/06/16 12:30 UTC NOAA

Melbourne Airport, Australia (YMML) 37-40S 144-50E 141M
Jun 16, 2019 - 08:30 AM EDT / 2019.06.16 1230 UTC
Wind: from the N (360 degrees) at 12 MPH (10 KT):0
Visibility: greater than 7 mile(s):0
Sky conditions: mostly clear
Temperature: 48 F (9 C)
Dew Point: 42 F (6 C)
Relative Humidity: 81%
Pressure (altimeter): 30.21 in. Hg (1023 hPa)
ob: YMML 161230Z 36010KT 9999 FEW040 09/06 Q1023 NOSIG
cycle: 12

Station Type Date Time Source
YMML TAF 2019/06/16 12:09 UTC NOAA

TAF TAF
AMD YMML 161106Z 1612/1718 36009KT 9999 FEW040 SCT060
FM170000 34012KT CAVOK
FM171300 36015G25KT 9999 FEW010

Example: see airport list